Time;durP1;ratioP1;P1;durP2;ratioP2;P2;SDS_P1;SDS_P2;PMS_P1;PMS_P2;Temp;Humidity;BMP_temperature;BMP_pressure;BME280_temperature;BME280_humidity;BME280_pressure;Samples;Min_cycle;Max_cycle;Signal;HPM_P1;HPM_P2
2023/09/19 00:00:13;;;;;;;;;;;25.10;86.40;;;;;;4938639;29;19984;-66
2023/09/19 00:02:39;;;;;;;;;;;24.90;87.30;;;;;;4938609;29;19990;-65
2023/09/19 00:05:05;;;;;;;;;;;24.90;87.90;;;;;;4938544;29;19984;-62
2023/09/19 00:07:30;;;;;;;;;;;25.00;87.40;;;;;;4938532;29;20331;-65
2023/09/19 00:09:56;;;;;;;;;;;25.00;86.30;;;;;;4938777;29;20030;-65
2023/09/19 00:12:22;;;;;;;;;;;25.10;86.70;;;;;;4938200;29;20035;-61
2023/09/19 00:14:47;;;;;;;;;;;25.00;86.10;;;;;;4938234;29;20007;-65
2023/09/19 00:17:13;;;;;;;;;;;25.00;84.80;;;;;;4938342;29;19988;-65
2023/09/19 00:19:38;;;;;;;;;;;25.00;84.60;;;;;;4938544;29;20437;-62
2023/09/19 00:22:04;;;;;;;;;;;25.00;84.10;;;;;;4938399;29;20418;-66
2023/09/19 00:24:31;;;;;;;;;;;25.00;83.90;;;;;;4938194;29;19983;-64
2023/09/19 00:26:58;;;;;;;;;;;25.00;84.00;;;;;;4921139;29;20458;-64
2023/09/19 00:29:25;;;;;;;;;;;25.00;83.90;;;;;;4938005;29;20365;-66
2023/09/19 00:31:50;;;;;;;;;;;25.00;84.50;;;;;;4938001;29;20107;-67
2023/09/19 00:34:16;;;;;;;;;;;25.00;84.40;;;;;;4938173;29;20098;-64
2023/09/19 00:36:43;;;;;;;;;;;24.90;85.50;;;;;;4938061;29;19983;-69
2023/09/19 00:39:08;;;;;;;;;;;25.00;86.30;;;;;;4937880;29;19994;-63
2023/09/19 00:41:35;;;;;;;;;;;24.90;85.50;;;;;;4937678;29;19988;-68
2023/09/19 00:44:02;;;;;;;;;;;24.90;85.70;;;;;;4937796;29;19984;-63
2023/09/19 00:46:28;;;;;;;;;;;24.90;85.50;;;;;;4937800;29;19988;-66
2023/09/19 00:48:53;;;;;;;;;;;24.90;86.40;;;;;;4937962;29;20082;-65
2023/09/19 00:51:21;;;;;;;;;;;24.80;87.70;;;;;;4937700;29;19984;-68
2023/09/19 00:53:47;;;;;;;;;;;24.60;88.40;;;;;;4937865;29;20011;-65
2023/09/19 00:56:12;;;;;;;;;;;24.70;88.60;;;;;;4937573;29;19984;-62
2023/09/19 00:58:38;;;;;;;;;;;24.70;88.20;;;;;;4937767;29;19988;-68
2023/09/19 01:01:06;;;;;;;;;;;24.60;88.90;;;;;;4937379;29;20024;-62
2023/09/19 01:03:33;;;;;;;;;;;24.50;89.80;;;;;;4937480;29;19984;-65
2023/09/19 01:06:02;;;;;;;;;;;24.60;88.30;;;;;;4937355;29;19994;-69
2023/09/19 01:08:29;;;;;;;;;;;24.60;88.70;;;;;;4937295;29;20079;-67
2023/09/19 01:11:08;;;;;;;;;;;24.70;88.70;;;;;;4937492;29;20082;-63
2023/09/19 01:14:03;;;;;;;;;;;24.80;88.30;;;;;;4937116;29;20026;-64
2023/09/19 01:16:35;;;;;;;;;;;24.70;88.60;;;;;;4924886;29;19988;-63
2023/09/19 01:19:20;;;;;;;;;;;24.70;88.40;;;;;;4937117;29;19987;-67
2023/09/19 01:22:06;;;;;;;;;;;24.70;88.70;;;;;;4937405;29;20366;-68
2023/09/19 01:24:50;;;;;;;;;;;24.70;88.00;;;;;;4930132;29;20363;-63
2023/09/19 01:27:22;;;;;;;;;;;24.70;89.10;;;;;;4936986;29;19995;-64
2023/09/19 01:29:48;;;;;;;;;;;24.70;89.10;;;;;;4936978;29;19987;-63
2023/09/19 01:32:22;;;;;;;;;;;24.70;89.10;;;;;;4936880;29;20043;-62
2023/09/19 01:34:48;;;;;;;;;;;24.70;89.80;;;;;;4936881;29;20019;-63
2023/09/19 01:37:19;;;;;;;;;;;24.60;90.30;;;;;;4936890;29;20582;-61
2023/09/19 01:39:49;;;;;;;;;;;24.70;90.30;;;;;;4936698;29;20466;-66
2023/09/19 01:42:33;;;;;;;;;;;24.70;90.90;;;;;;4937095;29;19988;-63
2023/09/19 01:44:58;;;;;;;;;;;24.70;90.70;;;;;;4936854;29;19991;-62
2023/09/19 01:47:35;;;;;;;;;;;24.60;91.00;;;;;;4936479;29;19987;-64
2023/09/19 01:50:10;;;;;;;;;;;24.60;91.50;;;;;;4937267;29;20037;-66
2023/09/19 01:52:38;;;;;;;;;;;24.60;91.40;;;;;;4937038;29;19989;-64
2023/09/19 01:55:09;;;;;;;;;;;24.60;91.60;;;;;;4936608;29;20018;-65
2023/09/19 01:57:37;;;;;;;;;;;24.50;91.80;;;;;;4936645;29;19991;-62
2023/09/19 02:00:06;;;;;;;;;;;24.50;92.30;;;;;;4936853;29;19995;-67
2023/09/19 02:02:38;;;;;;;;;;;24.40;92.50;;;;;;4936593;29;20079;-65
2023/09/19 02:05:04;;;;;;;;;;;24.40;92.90;;;;;;4936635;29;20031;-65
2023/09/19 02:07:31;;;;;;;;;;;24.40;92.70;;;;;;4936862;29;19988;-65
2023/09/19 02:10:05;;;;;;;;;;;24.40;92.90;;;;;;4936526;29;20427;-65
2023/09/19 02:12:32;;;;;;;;;;;24.40;92.60;;;;;;4936722;29;20019;-67
2023/09/19 02:14:59;;;;;;;;;;;24.40;92.70;;;;;;4936424;29;20012;-66
2023/09/19 02:17:26;;;;;;;;;;;24.40;93.30;;;;;;4936741;29;20039;-66
2023/09/19 02:19:52;;;;;;;;;;;24.40;92.90;;;;;;4936721;29;19992;-66
2023/09/19 02:22:17;;;;;;;;;;;24.40;92.80;;;;;;4936415;29;19988;-64
2023/09/19 02:24:43;;;;;;;;;;;24.40;92.90;;;;;;4936507;29;19991;-63
2023/09/19 02:27:08;;;;;;;;;;;24.40;93.20;;;;;;4937226;29;20031;-66
2023/09/19 02:29:34;;;;;;;;;;;24.40;93.70;;;;;;4936743;29;20479;-64
2023/09/19 02:32:02;;;;;;;;;;;24.20;93.40;;;;;;4936286;29;20363;-63
2023/09/19 02:34:28;;;;;;;;;;;24.20;94.20;;;;;;4936438;29;20008;-66
2023/09/19 02:36:55;;;;;;;;;;;24.20;94.70;;;;;;4936194;29;20011;-62
2023/09/19 02:39:21;;;;;;;;;;;24.00;95.10;;;;;;4936388;29;19984;-59
2023/09/19 02:41:46;;;;;;;;;;;24.00;95.60;;;;;;4936293;29;19988;-63
2023/09/19 02:44:12;;;;;;;;;;;24.00;95.80;;;;;;4936231;29;19988;-59
2023/09/19 02:46:37;;;;;;;;;;;24.00;95.70;;;;;;4936188;29;20074;-68
2023/09/19 02:49:06;;;;;;;;;;;24.00;96.10;;;;;;4936568;29;20031;-65
2023/09/19 02:51:32;;;;;;;;;;;23.90;95.80;;;;;;4946340;29;20042;-60
2023/09/19 02:54:02;;;;;;;;;;;23.90;96.30;;;;;;4955208;29;20011;-65
2023/09/19 02:56:29;;;;;;;;;;;23.90;96.70;;;;;;4955668;29;19983;-63
2023/09/19 02:58:55;;;;;;;;;;;23.70;97.30;;;;;;4955946;28;20492;-63
2023/09/19 03:01:21;;;;;;;;;;;23.70;97.20;;;;;;4958788;29;19991;-67
2023/09/19 03:03:46;;;;;;;;;;;23.70;96.90;;;;;;4959156;29;20051;-67
2023/09/19 03:06:13;;;;;;;;;;;23.70;97.10;;;;;;4958739;29;19990;-63
2023/09/19 03:08:39;;;;;;;;;;;23.70;97.40;;;;;;4958731;29;20015;-66
2023/09/19 03:11:11;;;;;;;;;;;23.70;97.00;;;;;;4958617;29;20015;-63
2023/09/19 03:13:37;;;;;;;;;;;23.70;96.80;;;;;;4958375;29;20486;-62
2023/09/19 03:16:05;;;;;;;;;;;23.70;97.00;;;;;;4958630;29;19984;-66
2023/09/19 03:18:34;;;;;;;;;;;23.70;96.90;;;;;;4958791;29;19983;-65
2023/09/19 03:21:00;;;;;;;;;;;23.70;97.00;;;;;;4958536;29;20006;-63
2023/09/19 03:23:26;;;;;;;;;;;23.70;97.40;;;;;;4958660;29;19983;-65
2023/09/19 03:25:53;;;;;;;;;;;23.50;97.80;;;;;;4958607;29;20354;-64
2023/09/19 03:28:20;;;;;;;;;;;23.50;97.80;;;;;;4958458;29;20114;-65
2023/09/19 03:30:46;;;;;;;;;;;23.50;98.10;;;;;;4958324;29;20449;-65
2023/09/19 03:33:12;;;;;;;;;;;23.40;98.20;;;;;;4958423;29;19987;-63
2023/09/19 03:35:39;;;;;;;;;;;23.40;98.50;;;;;;4958274;29;19993;-65
2023/09/19 03:38:05;;;;;;;;;;;23.30;98.10;;;;;;4958303;29;20345;-63
2023/09/19 03:40:30;;;;;;;;;;;23.40;97.70;;;;;;4958233;29;19987;-66
2023/09/19 03:42:56;;;;;;;;;;;23.40;98.00;;;;;;4958155;29;20011;-63
2023/09/19 03:45:22;;;;;;;;;;;23.20;98.80;;;;;;4958085;29;20023;-64
2023/09/19 03:47:47;;;;;;;;;;;23.20;99.00;;;;;;4957788;29;19995;-60
2023/09/19 03:50:17;;;;;;;;;;;23.10;99.60;;;;;;4958385;29;19983;-63
2023/09/19 03:52:43;;;;;;;;;;;22.90;99.90;;;;;;4958294;29;20019;-67
2023/09/19 03:55:09;;;;;;;;;;;22.90;99.90;;;;;;4957788;29;20007;-65
2023/09/19 03:57:36;;;;;;;;;;;22.80;99.90;;;;;;4957940;29;20042;-64
2023/09/19 04:00:02;;;;;;;;;;;22.80;99.90;;;;;;4958073;29;19991;-64
2023/09/19 04:02:32;;;;;;;;;;;22.80;99.90;;;;;;4957685;29;19988;-64
2023/09/19 04:04:58;;;;;;;;;;;22.80;99.90;;;;;;4958038;29;20123;-65
2023/09/19 04:07:25;;;;;;;;;;;22.80;99.90;;;;;;4957947;29;20465;-62
2023/09/19 04:09:53;;;;;;;;;;;22.60;99.90;;;;;;4957244;28;19990;-65
2023/09/19 04:12:19;;;;;;;;;;;22.60;99.90;;;;;;4957733;29;20030;-65
2023/09/19 04:14:45;;;;;;;;;;;22.50;99.90;;;;;;4957480;29;20008;-65
2023/09/19 04:17:10;;;;;;;;;;;22.50;99.90;;;;;;4957519;29;19991;-62
2023/09/19 04:19:36;;;;;;;;;;;22.50;99.90;;;;;;4957513;29;19984;-63
2023/09/19 04:22:02;;;;;;;;;;;22.50;99.90;;;;;;4957385;29;19987;-62
2023/09/19 04:24:28;;;;;;;;;;;22.50;99.90;;;;;;4957283;29;20334;-65
2023/09/19 04:26:53;;;;;;;;;;;22.60;99.90;;;;;;4957706;29;19990;-66
2023/09/19 04:29:20;;;;;;;;;;;22.60;99.90;;;;;;4957300;29;19990;-67
2023/09/19 04:31:45;;;;;;;;;;;22.60;99.90;;;;;;4957320;29;20008;-63
2023/09/19 04:34:17;;;;;;;;;;;22.70;99.90;;;;;;4957417;29;20405;-65
2023/09/19 04:36:43;;;;;;;;;;;22.70;99.90;;;;;;4957375;29;19994;-61
2023/09/19 04:39:10;;;;;;;;;;;22.70;99.90;;;;;;4957293;29;19988;-66
2023/09/19 04:41:38;;;;;;;;;;;22.60;99.90;;;;;;4956905;29;19984;-65
2023/09/19 04:44:04;;;;;;;;;;;22.60;99.90;;;;;;4956986;29;19999;-66
2023/09/19 04:46:30;;;;;;;;;;;22.60;99.90;;;;;;4956942;29;19991;-65
2023/09/19 04:48:56;;;;;;;;;;;22.70;99.90;;;;;;4956991;29;19984;-63
2023/09/19 04:51:21;;;;;;;;;;;22.70;99.90;;;;;;4956849;29;19983;-64
2023/09/19 04:53:47;;;;;;;;;;;22.70;99.90;;;;;;4956847;29;20110;-62
2023/09/19 04:56:13;;;;;;;;;;;22.70;99.90;;;;;;4956938;29;19991;-65
2023/09/19 04:58:39;;;;;;;;;;;22.70;99.90;;;;;;4956558;29;19987;-65
2023/09/19 05:01:04;;;;;;;;;;;22.80;99.90;;;;;;4956676;29;19994;-61
2023/09/19 05:03:30;;;;;;;;;;;22.80;99.90;;;;;;4957515;29;20035;-63
2023/09/19 05:05:56;;;;;;;;;;;22.80;99.90;;;;;;4956637;29;19992;-62
2023/09/19 05:08:22;;;;;;;;;;;22.90;99.90;;;;;;4956926;29;20038;-63
2023/09/19 05:10:48;;;;;;;;;;;22.90;99.90;;;;;;4956503;29;20007;-67
2023/09/19 05:13:14;;;;;;;;;;;22.90;99.90;;;;;;4956217;29;20023;-67
2023/09/19 05:15:40;;;;;;;;;;;23.00;99.80;;;;;;4956657;29;19991;-66
2023/09/19 05:18:06;;;;;;;;;;;23.10;99.50;;;;;;4956635;29;19984;-64
2023/09/19 05:20:36;;;;;;;;;;;23.10;99.40;;;;;;4956189;29;19987;-66
2023/09/19 05:23:02;;;;;;;;;;;23.10;98.00;;;;;;4954986;28;19987;-63
2023/09/19 05:25:31;;;;;;;;;;;23.10;98.10;;;;;;4955444;29;19988;-65
2023/09/19 05:27:58;;;;;;;;;;;23.10;98.10;;;;;;4955969;29;20480;-63
2023/09/19 05:30:24;;;;;;;;;;;23.20;97.90;;;;;;4956448;29;20460;-67
2023/09/19 05:32:51;;;;;;;;;;;23.30;97.90;;;;;;4955949;29;19987;-62
2023/09/19 05:35:16;;;;;;;;;;;23.40;97.80;;;;;;4956023;29;20007;-63
2023/09/19 05:37:42;;;;;;;;;;;23.40;97.60;;;;;;4956118;29;19992;-63
2023/09/19 05:40:12;;;;;;;;;;;23.40;97.30;;;;;;4955539;29;20071;-60
2023/09/19 05:42:39;;;;;;;;;;;23.50;97.30;;;;;;4954931;29;20411;-63
2023/09/19 05:45:06;;;;;;;;;;;23.60;96.50;;;;;;4961698;28;20018;-66
2023/09/19 05:47:32;;;;;;;;;;;23.80;95.90;;;;;;4957059;28;19991;-68
2023/09/19 05:49:57;;;;;;;;;;;23.90;95.50;;;;;;4965151;28;20014;-66
2023/09/19 05:52:23;;;;;;;;;;;24.00;95.10;;;;;;4955532;28;20343;-65
2023/09/19 05:54:49;;;;;;;;;;;24.10;95.20;;;;;;4955485;29;20062;-62
2023/09/19 05:57:15;;;;;;;;;;;24.20;94.50;;;;;;4938410;29;19996;-63
2023/09/19 05:59:42;;;;;;;;;;;24.40;93.60;;;;;;4955482;29;20038;-65
2023/09/19 06:02:09;;;;;;;;;;;24.60;93.40;;;;;;4953262;29;19996;-66
2023/09/19 06:04:35;;;;;;;;;;;26.00;90.40;;;;;;4954168;28;20062;-65
2023/09/19 06:07:01;;;;;;;;;;;27.80;79.70;;;;;;4955637;29;20078;-64
2023/09/19 06:09:27;;;;;;;;;;;29.20;71.70;;;;;;4955430;29;19990;-69
2023/09/19 06:11:55;;;;;;;;;;;30.50;64.90;;;;;;4954194;29;20018;-66
2023/09/19 06:14:21;;;;;;;;;;;31.50;59.20;;;;;;4936954;29;20022;-64
2023/09/19 06:16:47;;;;;;;;;;;32.40;56.10;;;;;;4952887;28;19987;-62
2023/09/19 06:19:14;;;;;;;;;;;33.00;53.50;;;;;;4940730;29;20412;-67
2023/09/19 06:21:40;;;;;;;;;;;33.50;52.60;;;;;;4968210;28;20460;-64
2023/09/19 06:24:06;;;;;;;;;;;34.00;50.60;;;;;;4974792;28;20410;-63
2023/09/19 06:26:32;;;;;;;;;;;34.60;50.30;;;;;;4974207;28;19994;-68
2023/09/19 06:28:59;;;;;;;;;;;35.20;47.90;;;;;;4974983;28;20016;-67
2023/09/19 06:31:26;;;;;;;;;;;35.90;47.00;;;;;;4959851;28;20525;-69
2023/09/19 06:33:52;;;;;;;;;;;36.50;45.50;;;;;;4953551;28;20441;-65
2023/09/19 06:36:17;;;;;;;;;;;36.90;44.00;;;;;;4978697;28;19998;-70
2023/09/19 06:38:43;;;;;;;;;;;37.20;43.50;;;;;;4978125;28;19983;-66
2023/09/19 06:41:09;;;;;;;;;;;37.50;42.70;;;;;;4961178;28;20010;-67
2023/09/19 06:43:35;;;;;;;;;;;37.90;41.20;;;;;;4970626;28;20343;-62
2023/09/19 06:46:01;;;;;;;;;;;37.90;41.40;;;;;;4957700;29;20082;-65
2023/09/19 06:48:26;;;;;;;;;;;38.30;40.60;;;;;;4951150;29;19987;-69
2023/09/19 06:51:04;;;;;;;;;;;38.90;40.30;;;;;;4952377;29;19999;-67
2023/09/19 06:53:31;;;;;;;;;;;39.30;39.40;;;;;;4938511;29;19991;-70
2023/09/19 06:55:57;;;;;;;;;;;39.60;39.80;;;;;;4954915;29;20069;-65
2023/09/19 06:58:23;;;;;;;;;;;39.60;38.60;;;;;;4956098;28;19988;-66
2023/09/19 07:00:50;;;;;;;;;;;39.70;37.60;;;;;;4953970;29;19988;-71
2023/09/19 07:03:18;;;;;;;;;;;39.30;37.80;;;;;;4946027;29;19999;-65
2023/09/19 07:05:44;;;;;;;;;;;39.30;37.50;;;;;;4956632;29;19987;-71
2023/09/19 07:08:12;;;;;;;;;;;39.30;38.10;;;;;;4958222;29;20127;-64
2023/09/19 07:10:39;;;;;;;;;;;39.20;38.80;;;;;;4957520;29;19991;-68
2023/09/19 07:13:10;;;;;;;;;;;38.40;38.30;;;;;;4958493;28;20016;-72
2023/09/19 07:15:38;;;;;;;;;;;37.90;39.00;;;;;;4954133;28;20437;-62
2023/09/19 07:18:05;;;;;;;;;;;37.50;39.90;;;;;;4957743;29;20398;-72
2023/09/19 07:20:32;;;;;;;;;;;37.20;39.70;;;;;;4954825;29;19988;-70
2023/09/19 07:23:01;;;;;;;;;;;37.40;39.20;;;;;;4930558;29;19988;-65
2023/09/19 07:25:29;;;;;;;;;;;37.70;40.60;;;;;;4939962;29;19991;-66
2023/09/19 07:27:59;;;;;;;;;;;38.10;40.00;;;;;;4925116;29;20462;-70
2023/09/19 07:30:33;;;;;;;;;;;38.50;38.90;;;;;;4957930;29;20034;-72
2023/09/19 07:33:00;;;;;;;;;;;38.80;39.00;;;;;;4933255;29;20413;-68
2023/09/19 07:35:28;;;;;;;;;;;39.20;37.70;;;;;;4947440;28;20007;-66
2023/09/19 07:37:53;;;;;;;;;;;39.50;38.00;;;;;;4926093;29;20453;-68
2023/09/19 07:40:26;;;;;;;;;;;39.90;36.40;;;;;;4951519;29;19991;-65
2023/09/19 07:42:53;;;;;;;;;;;39.70;36.80;;;;;;4937083;29;20023;-67
2023/09/19 07:45:19;;;;;;;;;;;39.60;38.10;;;;;;4936189;29;19983;-66
2023/09/19 07:47:49;;;;;;;;;;;40.10;37.10;;;;;;4934511;29;19999;-71
2023/09/19 07:50:21;;;;;;;;;;;40.70;36.10;;;;;;4952019;29;20022;-63
2023/09/19 07:52:47;;;;;;;;;;;40.90;35.50;;;;;;4950125;29;20077;-67
2023/09/19 07:55:16;;;;;;;;;;;40.40;35.70;;;;;;4950686;29;20007;-62
2023/09/19 07:57:42;;;;;;;;;;;40.30;36.70;;;;;;4953060;29;19998;-67
2023/09/19 08:00:08;;;;;;;;;;;40.70;36.60;;;;;;4949967;28;20367;-65
2023/09/19 08:02:40;;;;;;;;;;;41.00;35.80;;;;;;4941001;29;19995;-66
2023/09/19 08:05:06;;;;;;;;;;;40.80;35.20;;;;;;4938898;29;19994;-70
2023/09/19 08:07:32;;;;;;;;;;;40.30;36.80;;;;;;4920959;29;20477;-64
2023/09/19 08:09:58;;;;;;;;;;;40.30;36.40;;;;;;4945764;29;20497;-64
2023/09/19 08:12:25;;;;;;;;;;;40.70;35.50;;;;;;4953390;29;20139;-64
2023/09/19 08:14:55;;;;;;;;;;;41.40;35.40;;;;;;4936147;29;20007;-66
2023/09/19 08:17:22;;;;;;;;;;;41.90;35.00;;;;;;4947262;29;19984;-64
2023/09/19 08:19:49;;;;;;;;;;;42.20;33.90;;;;;;4952973;29;19999;-65
2023/09/19 08:22:17;;;;;;;;;;;42.30;34.00;;;;;;4949666;29;20342;-70
2023/09/19 08:24:43;;;;;;;;;;;42.40;33.60;;;;;;4948035;29;20036;-70
2023/09/19 08:27:10;;;;;;;;;;;42.90;33.20;;;;;;4936434;29;19983;-64
2023/09/19 08:29:35;;;;;;;;;;;42.80;31.40;;;;;;4951000;29;20362;-66
2023/09/19 08:32:05;;;;;;;;;;;42.00;33.00;;;;;;4948992;28;20289;-63
2023/09/19 08:34:33;;;;;;;;;;;41.90;33.50;;;;;;4918963;29;20162;-64
2023/09/19 08:36:59;;;;;;;;;;;41.80;32.50;;;;;;4939349;29;19991;-69
2023/09/19 08:39:36;;;;;;;;;;;41.60;32.80;;;;;;4934418;29;20091;-64
2023/09/19 08:42:02;;;;;;;;;;;41.50;32.60;;;;;;4944427;29;20073;-70
2023/09/19 08:44:30;;;;;;;;;;;40.90;34.10;;;;;;4951147;29;20107;-71
2023/09/19 08:47:04;;;;;;;;;;;40.70;33.60;;;;;;4946284;29;19992;-69
2023/09/19 08:49:35;;;;;;;;;;;40.50;32.50;;;;;;4937158;29;19995;-69
2023/09/19 08:52:05;;;;;;;;;;;39.80;33.80;;;;;;4944638;29;20045;-68
2023/09/19 08:54:35;;;;;;;;;;;39.80;33.10;;;;;;4948642;28;20454;-66
2023/09/19 08:57:07;;;;;;;;;;;39.90;34.00;;;;;;4941862;29;19988;-66
2023/09/19 08:59:35;;;;;;;;;;;39.70;33.80;;;;;;4949355;29;20462;-67
2023/09/19 09:02:01;;;;;;;;;;;39.60;33.20;;;;;;4953786;29;20461;-62
2023/09/19 09:04:26;;;;;;;;;;;39.50;33.90;;;;;;4952161;29;19992;-66
2023/09/19 09:06:54;;;;;;;;;;;39.10;34.10;;;;;;4950706;28;19999;-68
2023/09/19 09:09:20;;;;;;;;;;;39.00;34.10;;;;;;4951814;29;20020;-67
2023/09/19 09:11:56;;;;;;;;;;;38.50;34.50;;;;;;4954739;29;19991;-66
2023/09/19 09:14:23;;;;;;;;;;;38.30;34.60;;;;;;4943228;29;20063;-67
2023/09/19 09:16:48;;;;;;;;;;;38.60;35.30;;;;;;4952784;29;20005;-66
2023/09/19 09:19:20;;;;;;;;;;;38.90;34.50;;;;;;4938603;29;19988;-68
2023/09/19 09:21:47;;;;;;;;;;;39.20;33.10;;;;;;4950971;29;19991;-68
2023/09/19 09:24:33;;;;;;;;;;;39.20;32.90;;;;;;4944728;29;19991;-71
2023/09/19 09:27:00;;;;;;;;;;;39.00;33.50;;;;;;4944129;29;19991;-66
2023/09/19 09:29:40;;;;;;;;;;;39.00;33.00;;;;;;4950459;28;20037;-64
2023/09/19 09:32:26;;;;;;;;;;;39.00;33.20;;;;;;4942696;29;20012;-64
2023/09/19 09:34:55;;;;;;;;;;;38.80;32.90;;;;;;4944544;29;20015;-64
2023/09/19 09:37:22;;;;;;;;;;;38.70;34.80;;;;;;4952654;29;19994;-63
2023/09/19 09:40:19;;;;;;;;;;;38.90;34.30;;;;;;4950572;28;19995;-65
2023/09/19 09:42:46;;;;;;;;;;;38.80;32.70;;;;;;4948543;29;19994;-69
2023/09/19 09:45:12;;;;;;;;;;;38.40;33.40;;;;;;4952068;28;19988;-65
2023/09/19 09:47:42;;;;;;;;;;;38.30;33.10;;;;;;4952626;28;20339;-65
2023/09/19 09:50:17;;;;;;;;;;;38.70;32.50;;;;;;4952014;29;19998;-64
2023/09/19 09:52:46;;;;;;;;;;;38.60;32.70;;;;;;4937069;29;20512;-66
2023/09/19 09:55:12;;;;;;;;;;;38.70;32.40;;;;;;4945256;29;20008;-74
2023/09/19 09:57:41;;;;;;;;;;;39.10;31.60;;;;;;4945340;29;19992;-66
2023/09/19 10:02:42;;;;;;;;;;;39.70;31.90;;;;;;4941348;29;19992;-61
2023/09/19 10:05:20;;;;;;;;;;;39.70;31.20;;;;;;4941410;29;20041;-63
2023/09/19 10:07:52;;;;;;;;;;;39.40;30.50;;;;;;4932430;29;20532;-63
2023/09/19 10:10:38;;;;;;;;;;;39.10;30.90;;;;;;4950146;29;20037;-64
2023/09/19 10:13:05;;;;;;;;;;;39.00;30.10;;;;;;4953662;29;20078;-63
2023/09/19 10:15:32;;;;;;;;;;;38.90;30.20;;;;;;4953295;29;20033;-63
2023/09/19 10:18:01;;;;;;;;;;;38.70;30.70;;;;;;4952897;29;19992;-64
2023/09/19 10:22:58;;;;;;;;;;;39.40;29.90;;;;;;4949188;29;19991;-62
2023/09/19 10:25:30;;;;;;;;;;;39.10;30.30;;;;;;4944765;29;19987;-64
2023/09/19 10:28:10;;;;;;;;;;;39.00;30.70;;;;;;4933482;29;19984;-62
2023/09/19 10:30:47;;;;;;;;;;;38.80;31.40;;;;;;4934004;29;19990;-65
2023/09/19 10:33:16;;;;;;;;;;;39.10;30.40;;;;;;4945707;29;20075;-64
2023/09/19 10:35:42;;;;;;;;;;;39.60;30.90;;;;;;4933355;29;20015;-66
2023/09/19 10:38:11;;;;;;;;;;;39.60;30.10;;;;;;4934971;29;19999;-61
2023/09/19 10:40:42;;;;;;;;;;;39.20;30.70;;;;;;4935236;29;20105;-63
2023/09/19 10:43:11;;;;;;;;;;;39.30;30.50;;;;;;4932932;29;19991;-64
2023/09/19 10:45:39;;;;;;;;;;;39.10;30.80;;;;;;4952296;29;20464;-64
2023/09/19 10:48:07;;;;;;;;;;;39.10;31.60;;;;;;4941145;29;19998;-60
2023/09/19 10:50:44;;;;;;;;;;;38.80;30.80;;;;;;4933902;29;20424;-66
2023/09/19 10:53:11;;;;;;;;;;;37.80;31.40;;;;;;4932651;29;19984;-66
2023/09/19 10:55:37;;;;;;;;;;;37.20;31.80;;;;;;4933677;29;20016;-66
2023/09/19 10:58:14;;;;;;;;;;;37.50;32.20;;;;;;4933264;29;19983;-67
2023/09/19 11:00:53;;;;;;;;;;;37.30;31.20;;;;;;4935478;29;19990;-65
2023/09/19 11:03:20;;;;;;;;;;;37.10;31.80;;;;;;4935759;29;20087;-63
2023/09/19 11:06:04;;;;;;;;;;;37.20;32.10;;;;;;4941298;29;19991;-67
2023/09/19 11:08:32;;;;;;;;;;;37.20;32.60;;;;;;4941915;29;19988;-66
2023/09/19 11:10:59;;;;;;;;;;;37.00;32.20;;;;;;4932054;29;20000;-67
2023/09/19 11:13:30;;;;;;;;;;;36.50;33.00;;;;;;4931920;29;20024;-61
2023/09/19 11:15:56;;;;;;;;;;;36.70;33.80;;;;;;4930569;29;19992;-65
2023/09/19 11:18:40;;;;;;;;;;;37.00;32.50;;;;;;4932631;29;20343;-64
2023/09/19 11:21:24;;;;;;;;;;;36.80;32.80;;;;;;4936665;29;20035;-69
2023/09/19 11:24:25;;;;;;;;;;;36.80;33.10;;;;;;4947538;29;19998;-64
2023/09/19 11:26:52;;;;;;;;;;;36.80;32.80;;;;;;4876280;29;19995;-62
2023/09/19 11:29:39;;;;;;;;;;;36.80;34.60;;;;;;4938416;29;20285;-65
2023/09/19 11:32:05;;;;;;;;;;;36.50;35.30;;;;;;4948887;29;20083;-64
2023/09/19 11:34:38;;;;;;;;;;;36.30;36.40;;;;;;4937765;29;20047;-66
2023/09/19 11:37:11;;;;;;;;;;;36.10;36.60;;;;;;4936874;29;20459;-63
2023/09/19 11:39:41;;;;;;;;;;;35.30;37.50;;;;;;4943982;29;19995;-68
2023/09/19 11:42:26;;;;;;;;;;;34.70;38.30;;;;;;4942938;29;19995;-62
2023/09/19 11:44:55;;;;;;;;;;;34.40;38.60;;;;;;4937100;29;20350;-66
2023/09/19 11:47:22;;;;;;;;;;;34.30;39.60;;;;;;4945612;29;20472;-66
2023/09/19 11:49:48;;;;;;;;;;;33.80;40.70;;;;;;4943325;29;19996;-61
2023/09/19 11:52:22;;;;;;;;;;;33.10;42.00;;;;;;4936800;29;19990;-66
2023/09/19 11:54:56;;;;;;;;;;;33.00;43.00;;;;;;4936600;29;20019;-65
2023/09/19 11:57:22;;;;;;;;;;;32.80;44.20;;;;;;4936427;29;20442;-66
2023/09/19 11:59:49;;;;;;;;;;;32.70;44.20;;;;;;4953759;29;20082;-62
2023/09/19 12:02:28;;;;;;;;;;;32.60;44.60;;;;;;4956673;29;19984;-68
2023/09/19 12:04:55;;;;;;;;;;;32.30;45.60;;;;;;4956013;29;19991;-60
2023/09/19 12:07:21;;;;;;;;;;;32.10;46.50;;;;;;4954667;29;19988;-63
2023/09/19 12:09:47;;;;;;;;;;;32.10;46.50;;;;;;4955435;29;19990;-63
2023/09/19 12:12:33;;;;;;;;;;;32.20;47.30;;;;;;4955405;29;20543;-69
2023/09/19 12:14:59;;;;;;;;;;;32.00;47.90;;;;;;4954132;29;20051;-63
2023/09/19 12:17:37;;;;;;;;;;;32.00;47.70;;;;;;4955203;29;20397;-67
2023/09/19 12:20:14;;;;;;;;;;;32.20;47.10;;;;;;4955248;29;19987;-64
2023/09/19 12:22:40;;;;;;;;;;;32.10;47.80;;;;;;4956549;29;20450;-67
2023/09/19 12:25:07;;;;;;;;;;;31.80;48.00;;;;;;4956035;29;20050;-69
2023/09/19 12:27:43;;;;;;;;;;;31.70;48.60;;;;;;4939981;29;20504;-64
2023/09/19 12:30:09;;;;;;;;;;;31.80;48.50;;;;;;4957056;29;19988;-64
2023/09/19 12:32:36;;;;;;;;;;;31.90;48.80;;;;;;4956624;28;20462;-64
2023/09/19 12:35:07;;;;;;;;;;;31.90;49.30;;;;;;4955550;29;20090;-64
2023/09/19 12:37:35;;;;;;;;;;;31.80;50.10;;;;;;4956856;29;20075;-67
2023/09/19 12:40:17;;;;;;;;;;;31.70;50.10;;;;;;4956385;29;19987;-65
2023/09/19 12:42:46;;;;;;;;;;;31.70;50.00;;;;;;4940430;29;20034;-65
2023/09/19 12:45:15;;;;;;;;;;;31.60;50.80;;;;;;4956550;29;19984;-67
2023/09/19 12:48:00;;;;;;;;;;;31.60;51.20;;;;;;4956244;29;20339;-61
2023/09/19 12:50:29;;;;;;;;;;;31.50;51.90;;;;;;4956243;29;19987;-70
2023/09/19 12:52:56;;;;;;;;;;;31.40;51.10;;;;;;4938356;29;20393;-67
2023/09/19 12:55:23;;;;;;;;;;;31.40;51.30;;;;;;4938750;29;20011;-62
2023/09/19 12:58:09;;;;;;;;;;;31.30;52.10;;;;;;4956123;29;20442;-65
2023/09/19 13:00:38;;;;;;;;;;;31.20;52.00;;;;;;4956184;29;19991;-64
2023/09/19 13:03:15;;;;;;;;;;;31.00;53.40;;;;;;4956089;29;20418;-68
2023/09/19 13:05:53;;;;;;;;;;;31.00;52.30;;;;;;4956397;29;19994;-67
2023/09/19 13:08:30;;;;;;;;;;;31.00;54.60;;;;;;4938944;29;20453;-64
2023/09/19 13:11:17;;;;;;;;;;;31.10;53.10;;;;;;4956487;29;19983;-64
2023/09/19 13:13:55;;;;;;;;;;;31.40;52.00;;;;;;4955964;29;20397;-66
2023/09/19 13:16:25;;;;;;;;;;;31.40;51.60;;;;;;4956239;29;20505;-64
2023/09/19 13:18:56;;;;;;;;;;;31.60;51.30;;;;;;4956278;29;20532;-67
2023/09/19 13:21:45;;;;;;;;;;;31.70;50.60;;;;;;4956310;29;19983;-63
2023/09/19 13:24:25;;;;;;;;;;;31.70;50.20;;;;;;4955877;29;20462;-66
2023/09/19 13:26:53;;;;;;;;;;;32.40;51.00;;;;;;4956009;29;19983;-65
2023/09/19 13:29:19;;;;;;;;;;;33.10;48.70;;;;;;4956011;29;20366;-63
2023/09/19 13:31:45;;;;;;;;;;;33.50;47.50;;;;;;4955963;29;20003;-65
2023/09/19 13:34:11;;;;;;;;;;;33.70;46.90;;;;;;4956162;29;20105;-62
2023/09/19 13:36:37;;;;;;;;;;;34.00;47.00;;;;;;4956017;29;20463;-66
2023/09/19 13:39:05;;;;;;;;;;;34.30;47.10;;;;;;4955714;29;20010;-65
2023/09/19 13:41:32;;;;;;;;;;;34.70;45.60;;;;;;4955877;29;20503;-64
2023/09/19 13:43:58;;;;;;;;;;;34.70;44.00;;;;;;4955251;28;20458;-63
2023/09/19 13:46:26;;;;;;;;;;;34.70;43.70;;;;;;4955832;29;19991;-67
2023/09/19 13:48:54;;;;;;;;;;;34.50;45.20;;;;;;4955848;29;19983;-64
2023/09/19 13:51:22;;;;;;;;;;;34.80;45.40;;;;;;4955817;29;20354;-66
2023/09/19 13:53:48;;;;;;;;;;;35.10;44.80;;;;;;4955954;29;19998;-65
2023/09/19 13:56:14;;;;;;;;;;;35.10;43.40;;;;;;4955734;29;19987;-64
2023/09/19 13:58:41;;;;;;;;;;;35.10;43.20;;;;;;4955651;29;20331;-66
2023/09/19 14:01:12;;;;;;;;;;;35.20;43.80;;;;;;4955788;29;19987;-62
2023/09/19 14:03:38;;;;;;;;;;;35.10;42.90;;;;;;4955854;29;20446;-64
2023/09/19 14:06:04;;;;;;;;;;;34.50;43.70;;;;;;4955461;29;19995;-61
2023/09/19 14:08:29;;;;;;;;;;;33.90;44.80;;;;;;4955503;29;20042;-67
2023/09/19 14:10:55;;;;;;;;;;;33.30;45.80;;;;;;4955669;29;19987;-66
2023/09/19 14:13:21;;;;;;;;;;;32.70;46.80;;;;;;4955373;29;20525;-66
2023/09/19 14:15:47;;;;;;;;;;;32.30;47.30;;;;;;4955484;29;20146;-63
2023/09/19 14:18:12;;;;;;;;;;;32.10;48.20;;;;;;4955448;29;19983;-63
2023/09/19 14:20:39;;;;;;;;;;;31.80;49.20;;;;;;4955231;29;19984;-66
2023/09/19 14:23:04;;;;;;;;;;;31.30;51.60;;;;;;4955623;29;19991;-67
2023/09/19 14:25:30;;;;;;;;;;;30.70;53.70;;;;;;4955333;29;19991;-61
2023/09/19 14:27:55;;;;;;;;;;;30.50;54.30;;;;;;4955392;29;20071;-65
2023/09/19 14:30:21;;;;;;;;;;;30.60;54.70;;;;;;4955434;29;19983;-66